createdAt,value
2023-06-08T00:02:18.871Z,18.12
2023-06-08T00:04:48.887Z,18.33
2023-06-08T00:07:18.611Z,18.23
2023-06-08T00:09:52.309Z,18.38
2023-06-08T00:12:22.294Z,18.34
2023-06-08T00:14:52.145Z,18.24
2023-06-08T00:17:22.484Z,18.51
2023-06-08T00:19:54.036Z,18.27
2023-06-08T00:22:24.145Z,18.51
2023-06-08T00:24:56.492Z,18.63
2023-06-08T00:27:26.184Z,18.45
2023-06-08T00:29:56.595Z,17.92
2023-06-08T00:32:26.328Z,18.57
2023-06-08T00:34:56.223Z,18.27
2023-06-08T00:37:27.065Z,17.77
2023-06-08T00:39:59.336Z,18.30
2023-06-08T00:42:29.031Z,18.59
2023-06-08T00:44:59.536Z,18.13
2023-06-08T00:47:29.356Z,18.28
2023-06-08T00:49:59.153Z,18.37
2023-06-08T00:52:30.116Z,18.44
2023-06-08T00:55:02.456Z,18.38
2023-06-08T00:57:34.402Z,18.09
2023-06-08T01:00:09.104Z,17.85
2023-06-08T01:02:39.164Z,17.96
2023-06-08T01:05:10.144Z,18.00
2023-06-08T01:07:50.621Z,18.43
2023-06-08T01:10:31.857Z,18.68
2023-06-08T01:13:07.414Z,18.64
2023-06-08T01:15:42.719Z,18.46
2023-06-08T01:18:19.086Z,17.98
2023-06-08T01:21:03.874Z,18.16
2023-06-08T01:23:42.029Z,18.08
2023-06-08T01:26:17.300Z,18.15
2023-06-08T01:28:51.438Z,18.09
2023-06-08T01:31:21.329Z,18.19
2023-06-08T01:33:52.211Z,18.31
2023-06-08T01:36:28.309Z,18.21
2023-06-08T01:39:17.639Z,18.16
2023-06-08T01:41:55.418Z,18.22
2023-06-08T01:44:27.020Z,17.73
2023-06-08T01:46:59.924Z,18.20
2023-06-08T01:49:32.701Z,18.13
2023-06-08T01:52:03.526Z,18.37
2023-06-08T01:54:33.432Z,17.96
2023-06-08T01:57:06.787Z,18.34
2023-06-08T01:59:37.512Z,18.36
2023-06-08T02:02:07.752Z,18.30
2023-06-08T02:04:39.997Z,18.49
2023-06-08T02:07:09.818Z,18.39
2023-06-08T02:09:39.580Z,18.39
2023-06-08T02:12:12.521Z,18.40
2023-06-08T02:14:43.593Z,18.27
2023-06-08T02:17:14.705Z,18.16
2023-06-08T02:19:44.438Z,18.41
2023-06-08T02:22:14.248Z,18.09
2023-06-08T02:24:44.005Z,18.26
2023-06-08T02:27:16.682Z,18.28
2023-06-08T02:29:46.516Z,17.94
2023-06-08T02:32:16.312Z,17.86
2023-06-08T02:34:57.092Z,18.17
2023-06-08T02:37:29.383Z,18.03
2023-06-08T02:39:59.462Z,18.07
2023-06-08T02:42:36.890Z,18.51
2023-06-08T02:45:09.066Z,18.29
2023-06-08T02:47:38.837Z,18.30
2023-06-08T02:50:09.895Z,18.25
2023-06-08T02:52:39.778Z,18.22
2023-06-08T02:55:10.925Z,18.06
2023-06-08T02:57:43.378Z,18.07
2023-06-08T03:00:17.198Z,18.03
2023-06-08T03:02:58.169Z,18.11
2023-06-08T03:05:28.032Z,18.56
2023-06-08T03:08:00.672Z,17.50
2023-06-08T03:10:31.050Z,17.65
2023-06-08T03:13:04.913Z,17.78
2023-06-08T03:15:34.948Z,17.49
2023-06-08T03:18:05.950Z,17.24
2023-06-08T03:20:36.993Z,17.30
2023-06-08T03:23:11.869Z,17.47
2023-06-08T03:25:45.451Z,17.42
2023-06-08T03:28:18.396Z,17.33
2023-06-08T03:30:49.509Z,17.44
2023-06-08T03:33:22.261Z,17.57
2023-06-08T03:36:01.879Z,17.79
2023-06-08T03:38:42.013Z,17.36
2023-06-08T03:41:14.556Z,17.25
2023-06-08T03:43:47.932Z,17.14
2023-06-08T03:46:17.704Z,17.06
2023-06-08T03:48:48.976Z,17.05
2023-06-08T03:51:19.662Z,17.32
2023-06-08T03:53:50.018Z,17.48
2023-06-08T03:56:20.723Z,17.57
2023-06-08T03:58:53.120Z,17.64
2023-06-08T04:01:23.745Z,17.41
2023-06-08T04:03:55.987Z,17.85
2023-06-08T04:06:35.022Z,17.99
2023-06-08T04:09:08.190Z,18.82
2023-06-08T04:11:38.166Z,17.81
2023-06-08T04:14:10.714Z,17.65
2023-06-08T04:16:42.638Z,17.99
2023-06-08T04:19:13.466Z,17.47
2023-06-08T04:21:45.481Z,17.43
2023-06-08T04:24:22.769Z,17.68
2023-06-08T04:26:53.425Z,17.85
2023-06-08T04:29:26.539Z,18.21
2023-06-08T04:31:56.322Z,17.81
2023-06-08T04:34:26.299Z,17.35
2023-06-08T04:36:56.117Z,17.41
2023-06-08T04:39:26.329Z,17.58
2023-06-08T04:41:56.695Z,17.16
2023-06-08T04:44:35.119Z,17.49
2023-06-08T04:47:09.142Z,18.05
2023-06-08T04:49:39.806Z,18.15
2023-06-08T04:52:14.498Z,18.16
2023-06-08T04:54:48.208Z,18.14
2023-06-08T04:57:20.467Z,17.87
2023-06-08T04:59:53.799Z,18.16
2023-06-08T05:02:23.630Z,18.06
2023-06-08T05:04:53.346Z,17.92
2023-06-08T05:07:23.162Z,18.27
2023-06-08T05:09:54.146Z,18.43
2023-06-08T05:12:24.903Z,18.74
2023-06-08T05:14:57.562Z,18.47
2023-06-08T05:17:27.506Z,19.34
2023-06-08T05:19:57.310Z,19.08
2023-06-08T05:22:27.049Z,19.03
2023-06-08T05:24:56.729Z,19.22
2023-06-08T05:27:26.431Z,19.06
2023-06-08T05:30:01.198Z,18.83
2023-06-08T05:32:31.463Z,18.45
2023-06-08T05:35:01.716Z,19.11
2023-06-08T05:37:31.495Z,18.89
2023-06-08T05:40:01.316Z,18.98
2023-06-08T05:42:31.050Z,18.82
2023-06-08T05:45:03.418Z,19.06
2023-06-08T05:47:35.272Z,18.72
2023-06-08T05:50:05.673Z,19.16
2023-06-08T05:52:35.707Z,19.05
2023-06-08T05:55:06.729Z,18.98
2023-06-08T05:57:37.420Z,19.17
2023-06-08T06:00:13.883Z,18.19
2023-06-08T06:02:44.308Z,18.80
2023-06-08T06:05:14.134Z,19.16
2023-06-08T06:07:43.905Z,19.33
2023-06-08T06:10:14.451Z,19.39
2023-06-08T06:12:44.225Z,19.34
2023-06-08T06:15:17.831Z,19.77
2023-06-08T06:17:47.671Z,19.15
2023-06-08T06:20:17.888Z,19.33
2023-06-08T06:22:47.594Z,19.01
2023-06-08T06:25:22.821Z,19.33
2023-06-08T06:27:52.633Z,19.92
2023-06-08T06:30:25.001Z,19.66
2023-06-08T06:32:54.760Z,19.95
2023-06-08T06:35:24.541Z,20.06
2023-06-08T06:37:54.719Z,19.37
2023-06-08T06:40:24.876Z,19.93
2023-06-08T06:42:54.671Z,19.26
2023-06-08T06:45:39.512Z,19.55
2023-06-08T06:48:09.353Z,19.51
2023-06-08T06:50:39.061Z,19.72
2023-06-08T06:53:08.784Z,19.14
2023-06-08T06:55:38.484Z,18.76
2023-06-08T06:58:08.627Z,18.85
2023-06-08T07:00:41.056Z,19.43
2023-06-08T07:03:13.115Z,19.34
2023-06-08T07:05:43.021Z,19.11
2023-06-08T07:08:13.093Z,19.43
2023-06-08T07:10:42.795Z,19.35
2023-06-08T07:13:12.485Z,19.00
2023-06-08T07:15:44.844Z,19.02
2023-06-08T07:18:14.740Z,19.09
2023-06-08T07:20:44.514Z,19.41
2023-06-08T07:23:29.850Z,18.83
2023-06-08T07:26:28.595Z,19.65
2023-06-08T07:28:55.571Z,19.73
2023-06-08T07:31:28.340Z,19.59
2023-06-08T07:33:58.826Z,19.73
2023-06-08T07:36:30.130Z,19.16
2023-06-08T07:39:00.056Z,19.57
2023-06-08T07:41:30.189Z,19.88
2023-06-08T07:44:00.605Z,19.56
2023-06-08T07:46:33.267Z,19.33
2023-06-08T07:49:03.001Z,19.37
2023-06-08T07:51:32.724Z,19.87
2023-06-08T07:54:02.497Z,20.00
2023-06-08T07:56:32.215Z,19.60
2023-06-08T07:59:02.034Z,19.87
2023-06-08T08:01:34.318Z,20.07
2023-06-08T08:04:04.089Z,19.46
2023-06-08T08:06:34.099Z,19.02
2023-06-08T08:09:04.394Z,19.24
2023-06-08T08:11:34.085Z,19.48
2023-06-08T08:14:03.798Z,19.78
2023-06-08T08:16:36.087Z,19.93
2023-06-08T08:19:06.671Z,19.91
2023-06-08T08:21:36.896Z,20.16
2023-06-08T08:24:07.337Z,20.16
2023-06-08T08:26:37.357Z,20.49
2023-06-08T08:29:07.070Z,20.13
2023-06-08T08:31:39.439Z,20.19
2023-06-08T08:34:11.753Z,20.04
2023-06-08T08:36:42.110Z,20.19
2023-06-08T08:39:12.532Z,20.16
2023-06-08T08:41:44.809Z,19.59
2023-06-08T08:44:18.552Z,20.20
2023-06-08T08:46:53.504Z,20.15
2023-06-08T08:49:26.024Z,20.31
2023-06-08T08:51:57.943Z,19.91
2023-06-08T08:54:32.809Z,20.01
2023-06-08T08:57:03.144Z,20.55
2023-06-08T08:59:33.968Z,20.31
2023-06-08T09:02:06.761Z,20.42
2023-06-08T09:04:36.520Z,20.34
2023-06-08T09:07:06.883Z,20.93
2023-06-08T09:09:36.619Z,21.00
2023-06-08T09:12:07.718Z,21.01
2023-06-08T09:14:37.502Z,20.64
2023-06-08T09:17:09.987Z,20.22
2023-06-08T09:19:39.786Z,20.98
2023-06-08T09:22:10.883Z,21.33
2023-06-08T09:24:52.644Z,21.58
2023-06-08T09:27:28.401Z,20.87
2023-06-08T09:29:58.721Z,21.44
2023-06-08T09:32:38.512Z,21.59
2023-06-08T09:35:09.949Z,21.30
2023-06-08T09:37:41.378Z,21.36
2023-06-08T09:40:24.049Z,21.83
2023-06-08T09:42:55.949Z,21.18
2023-06-08T09:45:25.913Z,21.53
2023-06-08T09:48:15.189Z,21.42
2023-06-08T09:50:44.879Z,21.59
2023-06-08T09:53:15.389Z,21.59
2023-06-08T09:55:45.825Z,21.52
2023-06-08T09:58:16.020Z,21.44
2023-06-08T10:00:47.067Z,21.77
2023-06-08T10:03:26.250Z,22.12
2023-06-08T10:05:56.390Z,22.11
2023-06-08T10:08:30.386Z,22.39
2023-06-08T10:11:01.152Z,22.73
2023-06-08T10:13:33.767Z,22.82
2023-06-08T10:16:03.716Z,22.70
2023-06-08T10:18:37.218Z,22.23
2023-06-08T10:21:09.722Z,23.22
2023-06-08T10:23:40.053Z,23.33
2023-06-08T10:26:10.493Z,23.75
2023-06-08T10:28:40.297Z,23.62
2023-06-08T10:31:35.419Z,24.12
2023-06-08T10:34:11.914Z,24.20
2023-06-08T10:36:43.692Z,23.76
2023-06-08T10:39:15.664Z,23.24
2023-06-08T10:41:47.001Z,22.68
2023-06-08T10:44:33.429Z,22.73
2023-06-08T10:47:04.543Z,22.29
2023-06-08T10:49:39.458Z,22.73
2023-06-08T10:52:11.752Z,23.55
2023-06-08T10:54:53.331Z,23.93
2023-06-08T10:57:38.823Z,24.49
2023-06-08T11:00:44.200Z,24.34
2023-06-08T11:03:16.888Z,25.09
2023-06-08T11:05:54.212Z,25.48
2023-06-08T11:08:24.823Z,25.68
2023-06-08T11:10:57.041Z,24.75
2023-06-08T11:13:27.270Z,24.36
2023-06-08T11:15:58.113Z,24.85
2023-06-08T11:18:28.013Z,25.21
2023-06-08T11:21:01.729Z,24.15
2023-06-08T11:23:36.358Z,23.80
2023-06-08T11:26:06.342Z,24.85
2023-06-08T11:28:36.283Z,24.83
2023-06-08T11:31:11.559Z,24.87
2023-06-08T11:33:52.166Z,24.98
2023-06-08T11:36:24.598Z,25.19
2023-06-08T11:38:54.497Z,24.80
2023-06-08T11:41:24.681Z,25.07
2023-06-08T11:43:54.447Z,25.03
2023-06-08T11:46:24.397Z,23.10
2023-06-08T11:48:54.480Z,23.91
2023-06-08T11:51:27.228Z,25.14
2023-06-08T11:53:57.757Z,25.15
2023-06-08T11:56:28.257Z,25.44
2023-06-08T11:58:57.984Z,25.52
2023-06-08T12:01:27.779Z,25.61
2023-06-08T12:03:57.636Z,25.43
2023-06-08T12:06:31.705Z,25.54
2023-06-08T12:09:01.463Z,25.30
2023-06-08T12:11:31.363Z,24.92
2023-06-08T12:14:01.353Z,24.44
2023-06-08T12:16:31.159Z,24.89
2023-06-08T12:19:00.896Z,24.98
2023-06-08T12:21:33.212Z,25.20
2023-06-08T12:24:02.931Z,25.30
2023-06-08T12:26:32.709Z,25.45
2023-06-08T12:29:07.340Z,25.98
2023-06-08T12:31:37.365Z,25.56
2023-06-08T12:34:07.516Z,24.79
2023-06-08T12:36:40.137Z,25.35
2023-06-08T12:39:10.050Z,25.54
2023-06-08T12:41:39.820Z,25.41
2023-06-08T12:44:09.686Z,25.34
2023-06-08T12:46:39.421Z,24.81
2023-06-08T12:49:09.370Z,25.10
2023-06-08T12:51:41.675Z,25.35
2023-06-08T12:54:11.488Z,25.35
2023-06-08T12:56:41.175Z,25.80
2023-06-08T12:59:10.863Z,25.58
2023-06-08T13:01:40.688Z,25.76
2023-06-08T13:04:10.820Z,25.63
2023-06-08T13:06:43.384Z,25.72
2023-06-08T13:09:13.211Z,26.17
2023-06-08T13:11:43.203Z,26.05
2023-06-08T13:14:12.958Z,26.13
2023-06-08T13:16:42.786Z,25.89
2023-06-08T13:19:12.523Z,26.49
2023-06-08T13:21:44.872Z,26.30
2023-06-08T13:24:14.673Z,26.73
2023-06-08T13:26:44.541Z,26.13
2023-06-08T13:29:14.284Z,26.20
2023-06-08T13:31:45.946Z,26.76
2023-06-08T13:34:15.734Z,26.92
2023-06-08T13:36:48.028Z,26.59
2023-06-08T13:39:18.001Z,26.49
2023-06-08T13:41:47.752Z,26.87
2023-06-08T13:44:17.594Z,27.21
2023-06-08T13:46:47.446Z,26.52
2023-06-08T13:49:18.623Z,27.42
2023-06-08T13:51:51.191Z,26.82
2023-06-08T13:54:20.936Z,26.78
2023-06-08T13:56:50.841Z,27.23
2023-06-08T13:59:20.645Z,27.95
2023-06-08T14:01:50.637Z,27.64
2023-06-08T14:04:20.732Z,27.20
2023-06-08T14:06:53.065Z,27.14
2023-06-08T14:09:22.761Z,27.52
2023-06-08T14:11:52.686Z,27.93
2023-06-08T14:14:22.447Z,27.44
2023-06-08T14:16:52.189Z,28.09
2023-06-08T14:19:21.898Z,27.65
2023-06-08T14:21:54.310Z,27.72
2023-06-08T14:24:24.042Z,27.04
2023-06-08T14:26:53.805Z,26.49
2023-06-08T14:29:23.526Z,28.14
2023-06-08T14:31:54.924Z,28.24
2023-06-08T14:34:24.714Z,26.89
2023-06-08T14:36:57.065Z,26.24
2023-06-08T14:39:26.885Z,26.41
2023-06-08T14:41:56.647Z,27.09
2023-06-08T14:44:26.355Z,27.17
2023-06-08T14:46:56.112Z,27.16
2023-06-08T14:49:26.044Z,27.05
2023-06-08T14:51:58.583Z,27.76
2023-06-08T14:54:28.624Z,26.82
2023-06-08T14:56:58.415Z,26.37
2023-06-08T14:59:28.774Z,26.15
2023-06-08T15:01:58.908Z,27.26
2023-06-08T15:04:28.954Z,26.83
2023-06-08T15:07:01.387Z,26.46
2023-06-08T15:09:31.111Z,26.60
2023-06-08T15:12:00.809Z,26.79
2023-06-08T15:14:32.904Z,27.31
2023-06-08T15:17:02.960Z,26.83
2023-06-08T15:19:32.940Z,26.73
2023-06-08T15:22:05.919Z,26.79
2023-06-08T15:24:35.636Z,26.86
2023-06-08T15:27:06.397Z,26.66
2023-06-08T15:29:36.231Z,26.39
2023-06-08T15:32:06.498Z,26.96
2023-06-08T15:34:36.429Z,27.25
2023-06-08T15:37:09.356Z,26.85
2023-06-08T15:39:39.060Z,26.93
2023-06-08T15:42:09.445Z,27.61
2023-06-08T15:44:39.181Z,27.18
2023-06-08T15:47:09.498Z,27.77
2023-06-08T15:49:39.399Z,27.92
2023-06-08T15:52:12.009Z,28.07
2023-06-08T15:54:41.720Z,27.29
2023-06-08T15:57:12.319Z,27.88
2023-06-08T15:59:42.089Z,27.56
2023-06-08T16:02:12.152Z,28.29
2023-06-08T16:04:42.062Z,28.39
2023-06-08T16:07:14.447Z,28.74
2023-06-08T16:09:44.229Z,28.45
2023-06-08T16:12:15.425Z,28.67
2023-06-08T16:14:45.220Z,28.70
2023-06-08T16:17:14.958Z,28.21
2023-06-08T16:19:45.389Z,28.14
2023-06-08T16:22:18.055Z,28.08
2023-06-08T16:24:47.878Z,27.90
2023-06-08T16:27:18.004Z,28.12
2023-06-08T16:29:48.251Z,28.25
2023-06-08T16:32:18.705Z,27.20
2023-06-08T16:34:48.658Z,26.26
2023-06-08T16:37:21.024Z,26.43
2023-06-08T16:39:50.721Z,27.18
2023-06-08T16:42:20.514Z,26.91
2023-06-08T16:44:50.444Z,26.46
2023-06-08T16:47:20.536Z,26.42
2023-06-08T16:49:50.412Z,26.28
2023-06-08T16:52:23.094Z,26.20
2023-06-08T16:54:53.711Z,26.50
2023-06-08T16:57:23.568Z,26.40
2023-06-08T16:59:53.368Z,26.19
2023-06-08T17:02:23.206Z,25.96
2023-06-08T17:04:53.057Z,25.97
2023-06-08T17:07:25.895Z,26.93
2023-06-08T17:09:55.752Z,27.07
2023-06-08T17:12:25.729Z,26.38
2023-06-08T17:14:55.564Z,25.96
2023-06-08T17:17:25.764Z,26.76
2023-06-08T17:19:56.309Z,25.60
2023-06-08T17:22:28.829Z,24.93
2023-06-08T17:24:59.022Z,24.32
2023-06-08T17:27:28.762Z,23.96
2023-06-08T17:30:00.179Z,23.75
2023-06-08T17:32:30.802Z,23.83
2023-06-08T17:35:00.706Z,24.19
2023-06-08T17:37:33.064Z,24.12
2023-06-08T17:40:02.944Z,24.25
2023-06-08T17:42:32.675Z,24.11
2023-06-08T17:45:02.440Z,23.56
2023-06-08T17:47:32.248Z,23.03
2023-06-08T17:50:01.962Z,22.93
2023-06-08T17:52:34.611Z,23.18
2023-06-08T17:55:06.135Z,22.27
2023-06-08T17:57:36.341Z,22.29
2023-06-08T18:00:06.632Z,21.65
2023-06-08T18:02:36.632Z,21.47
2023-06-08T18:05:07.721Z,21.46
2023-06-08T18:07:40.287Z,21.41
2023-06-08T18:10:11.137Z,21.13
2023-06-08T18:12:40.918Z,20.53
2023-06-08T18:15:11.529Z,20.42
2023-06-08T18:17:41.403Z,21.26
2023-06-08T18:20:11.776Z,21.15
2023-06-08T18:22:44.389Z,21.08
2023-06-08T18:25:17.123Z,21.34
2023-06-08T18:27:49.389Z,20.72
2023-06-08T18:30:19.588Z,21.09
2023-06-08T18:32:49.367Z,21.07
2023-06-08T18:35:19.222Z,19.26
2023-06-08T18:37:54.276Z,18.88
2023-06-08T18:40:24.379Z,18.69
2023-06-08T18:42:54.190Z,18.75
2023-06-08T18:45:23.912Z,18.61
2023-06-08T18:47:53.895Z,18.92
2023-06-08T18:50:23.659Z,19.32
2023-06-08T18:52:56.222Z,19.19
2023-06-08T18:55:27.677Z,19.44
2023-06-08T18:57:58.584Z,19.70
2023-06-08T19:00:28.577Z,19.73
2023-06-08T19:02:58.762Z,19.48
2023-06-08T19:05:28.809Z,18.78
2023-06-08T19:08:01.918Z,18.72
2023-06-08T19:10:31.722Z,18.82
2023-06-08T19:13:01.438Z,19.01
2023-06-08T19:15:31.182Z,19.07
2023-06-08T19:18:01.716Z,18.92
2023-06-08T19:20:31.823Z,19.07
2023-06-08T19:23:04.164Z,18.66
2023-06-08T19:25:33.905Z,18.51
2023-06-08T19:28:03.748Z,18.43
2023-06-08T19:30:33.460Z,18.39
2023-06-08T19:33:04.323Z,18.49
2023-06-08T19:35:34.234Z,18.68
2023-06-08T19:38:06.553Z,18.77
2023-06-08T19:40:38.287Z,19.03
2023-06-08T19:43:08.003Z,19.12
2023-06-08T19:45:37.741Z,19.30
2023-06-08T19:48:08.573Z,19.29
2023-06-08T19:50:38.380Z,19.22
2023-06-08T19:53:11.005Z,19.27
2023-06-08T19:55:44.862Z,18.24
2023-06-08T19:58:14.627Z,18.78
2023-06-08T20:00:44.369Z,18.26
2023-06-08T20:03:14.121Z,18.36
2023-06-08T20:05:43.866Z,18.89
2023-06-08T20:08:17.113Z,19.07
2023-06-08T20:10:47.491Z,19.54
2023-06-08T20:13:17.249Z,19.38
2023-06-08T20:15:46.951Z,18.92
2023-06-08T20:18:20.316Z,18.48
2023-06-08T20:20:50.513Z,18.48
2023-06-08T20:23:23.201Z,19.03
2023-06-08T20:25:53.346Z,18.34
2023-06-08T20:28:23.486Z,18.17
2023-06-08T20:30:53.201Z,18.29
2023-06-08T20:33:22.924Z,18.39
2023-06-08T20:35:52.839Z,18.02
2023-06-08T20:38:28.132Z,18.20
2023-06-08T20:40:59.348Z,17.77
2023-06-08T20:43:29.124Z,17.62
2023-06-08T20:45:58.924Z,17.42
2023-06-08T20:48:28.628Z,17.60
2023-06-08T20:50:58.416Z,17.59
2023-06-08T20:53:31.091Z,17.72
2023-06-08T20:56:02.215Z,17.79
2023-06-08T20:58:31.934Z,17.85
2023-06-08T21:01:01.647Z,17.77
2023-06-08T21:03:31.459Z,17.52
2023-06-08T21:06:01.215Z,17.21
2023-06-08T21:08:33.616Z,17.31
2023-06-08T21:11:03.352Z,16.89
2023-06-08T21:13:33.050Z,16.58
2023-06-08T21:16:02.989Z,17.06
2023-06-08T21:18:32.739Z,16.91
2023-06-08T21:21:02.518Z,17.71
2023-06-08T21:23:34.841Z,17.23
2023-06-08T21:26:04.621Z,17.29
2023-06-08T21:28:34.941Z,17.21
2023-06-08T21:31:04.817Z,16.98
2023-06-08T21:33:34.720Z,16.73
2023-06-08T21:36:11.431Z,16.28
2023-06-08T21:38:45.135Z,16.54
2023-06-08T21:41:15.094Z,17.45
2023-06-08T21:43:44.869Z,17.08
2023-06-08T21:46:14.819Z,18.03
2023-06-08T21:48:44.698Z,17.85
2023-06-08T21:51:14.496Z,17.87
2023-06-08T21:53:47.284Z,16.86
2023-06-08T21:56:17.040Z,16.98
2023-06-08T21:58:46.751Z,17.29
2023-06-08T22:01:17.594Z,16.68
2023-06-08T22:03:47.455Z,17.32
2023-06-08T22:06:18.307Z,17.64
2023-06-08T22:08:50.648Z,17.67
2023-06-08T22:11:21.715Z,16.80
2023-06-08T22:13:52.602Z,16.50
2023-06-08T22:16:23.206Z,17.08
2023-06-08T22:18:54.144Z,16.37
2023-06-08T22:21:26.210Z,16.15
2023-06-08T22:23:58.539Z,16.19
2023-06-08T22:26:28.637Z,16.00
2023-06-08T22:29:00.060Z,15.86
2023-06-08T22:31:29.925Z,15.89
2023-06-08T22:33:59.643Z,15.83
2023-06-08T22:36:29.532Z,16.15
2023-06-08T22:39:01.861Z,16.51
2023-06-08T22:41:31.602Z,16.32
2023-06-08T22:44:01.399Z,15.85
2023-06-08T22:46:31.380Z,15.84
2023-06-08T22:49:02.506Z,16.49
2023-06-08T22:51:35.067Z,16.52
2023-06-08T22:54:07.752Z,16.68
2023-06-08T22:56:37.514Z,15.82
2023-06-08T22:59:07.215Z,16.01
2023-06-08T23:01:37.067Z,16.05
2023-06-08T23:04:07.091Z,16.72
2023-06-08T23:06:37.840Z,16.57
2023-06-08T23:09:10.120Z,15.63
2023-06-08T23:11:40.760Z,16.39
2023-06-08T23:14:10.513Z,16.22
2023-06-08T23:16:40.607Z,15.97
2023-06-08T23:19:10.434Z,16.30
2023-06-08T23:21:41.244Z,16.26
2023-06-08T23:24:13.707Z,16.67
2023-06-08T23:26:43.503Z,17.30
2023-06-08T23:29:13.199Z,16.07
2023-06-08T23:31:43.027Z,15.81
2023-06-08T23:34:12.779Z,15.84
2023-06-08T23:36:43.495Z,15.95
2023-06-08T23:39:15.807Z,15.98
2023-06-08T23:41:45.545Z,16.02
2023-06-08T23:44:15.297Z,15.59
2023-06-08T23:46:45.448Z,15.56
2023-06-08T23:49:15.198Z,15.67
2023-06-08T23:51:44.974Z,16.26
2023-06-08T23:54:17.323Z,16.84
2023-06-08T23:56:47.028Z,16.34
2023-06-08T23:59:16.835Z,15.68
